createdAt,value
2023-05-04T00:01:52.247Z,2.33
2023-05-04T00:04:23.544Z,2.60
2023-05-04T00:06:54.837Z,3.30
2023-05-04T00:09:26.144Z,2.67
2023-05-04T00:11:57.672Z,2.70
2023-05-04T00:14:28.947Z,3.00
2023-05-04T00:17:00.338Z,2.60
2023-05-04T00:19:33.140Z,2.20
2023-05-04T00:22:04.485Z,2.60
2023-05-04T00:24:35.861Z,2.50
2023-05-04T00:27:07.292Z,2.20
2023-05-04T00:29:38.687Z,2.77
2023-05-04T00:32:10.560Z,2.80
2023-05-04T00:34:41.837Z,2.70
2023-05-04T00:37:13.217Z,2.77
2023-05-04T00:39:44.484Z,2.83
2023-05-04T00:42:15.875Z,2.40
2023-05-04T00:44:47.348Z,2.27
2023-05-04T00:47:19.768Z,2.67
2023-05-04T00:49:52.042Z,2.70
2023-05-04T00:52:24.330Z,2.33
2023-05-04T00:54:55.865Z,2.90
2023-05-04T00:57:27.418Z,3.27
2023-05-04T00:59:58.788Z,2.80
2023-05-04T01:02:30.110Z,2.70
2023-05-04T01:05:02.610Z,2.30
2023-05-04T01:07:56.127Z,2.87
2023-05-04T01:10:34.562Z,3.00
2023-05-04T01:13:09.942Z,2.10
2023-05-04T01:15:42.354Z,2.83
2023-05-04T01:18:14.277Z,2.53
2023-05-04T01:20:45.596Z,2.50
2023-05-04T01:23:17.050Z,2.20
2023-05-04T01:26:14.524Z,2.07
2023-05-04T01:29:00.619Z,3.10
2023-05-04T01:31:35.679Z,2.33
2023-05-04T01:34:08.787Z,2.90
2023-05-04T01:36:41.568Z,2.30
2023-05-04T01:39:12.950Z,2.53
2023-05-04T01:41:44.255Z,2.17
2023-05-04T01:44:16.375Z,2.13
2023-05-04T01:46:47.708Z,2.30
2023-05-04T01:49:19.032Z,2.20
2023-05-04T01:51:50.410Z,2.57
2023-05-04T01:54:21.684Z,2.50
2023-05-04T01:56:53.069Z,3.23
2023-05-04T01:59:24.340Z,2.93
2023-05-04T02:01:55.888Z,2.40
2023-05-04T02:04:27.279Z,2.27
2023-05-04T02:06:58.554Z,2.90
2023-05-04T02:09:29.830Z,2.10
2023-05-04T02:12:01.120Z,2.97
2023-05-04T02:14:32.438Z,2.43
2023-05-04T02:17:03.707Z,2.03
2023-05-04T02:19:34.985Z,2.17
2023-05-04T02:22:06.287Z,2.43
2023-05-04T02:24:37.659Z,2.23
2023-05-04T02:27:08.966Z,2.43
2023-05-04T02:29:40.264Z,2.67
2023-05-04T02:32:11.550Z,2.30
2023-05-04T02:34:42.899Z,2.50
2023-05-04T02:37:14.314Z,2.50
2023-05-04T02:39:45.626Z,2.33
2023-05-04T02:42:17.156Z,2.20
2023-05-04T02:44:48.498Z,2.17
2023-05-04T02:47:19.800Z,2.33
2023-05-04T02:49:51.145Z,2.17
2023-05-04T02:52:22.437Z,2.40
2023-05-04T02:54:53.694Z,2.23
2023-05-04T02:57:25.092Z,2.60
2023-05-04T02:59:56.775Z,2.40
2023-05-04T03:02:28.147Z,2.70
2023-05-04T03:04:59.545Z,2.33
2023-05-04T03:07:31.393Z,2.50
2023-05-04T03:10:03.004Z,2.57
2023-05-04T03:12:34.581Z,1.87
2023-05-04T03:15:06.626Z,2.63
2023-05-04T03:17:38.291Z,2.30
2023-05-04T03:20:10.203Z,2.23
2023-05-04T03:22:41.496Z,2.03
2023-05-04T03:25:12.761Z,2.23
2023-05-04T03:27:44.086Z,2.37
2023-05-04T03:30:15.436Z,2.40
2023-05-04T03:32:48.661Z,2.30
2023-05-04T03:35:24.592Z,2.30
2023-05-04T03:40:27.778Z,1.80
2023-05-04T03:42:59.050Z,2.50
2023-05-04T03:45:30.476Z,2.10
2023-05-04T03:48:02.194Z,2.37
2023-05-04T03:50:33.529Z,2.20
2023-05-04T03:53:05.616Z,2.57
2023-05-04T03:55:37.011Z,2.30
2023-05-04T03:58:08.385Z,2.30
2023-05-04T04:00:39.889Z,2.30
2023-05-04T04:03:11.399Z,2.27
2023-05-04T04:05:42.902Z,2.80
2023-05-04T04:08:14.446Z,2.40
2023-05-04T04:10:45.766Z,2.03
2023-05-04T04:13:17.083Z,2.40
2023-05-04T04:15:48.447Z,2.07
2023-05-04T04:18:20.337Z,2.20
2023-05-04T04:20:51.695Z,2.20
2023-05-04T04:23:24.011Z,2.40
2023-05-04T04:25:55.265Z,2.37
2023-05-04T04:28:26.648Z,2.17
2023-05-04T04:30:57.967Z,2.40
2023-05-04T04:33:29.412Z,2.33
2023-05-04T04:36:00.883Z,2.20
2023-05-04T04:38:32.173Z,3.00
2023-05-04T04:41:03.559Z,2.90
2023-05-04T04:43:35.304Z,2.63
2023-05-04T04:46:06.921Z,3.20
2023-05-04T04:48:38.178Z,1.97
2023-05-04T04:51:11.164Z,2.90
2023-05-04T04:53:42.423Z,2.60
2023-05-04T04:56:13.824Z,3.03
2023-05-04T04:58:46.041Z,2.57
2023-05-04T05:01:18.821Z,1.90
2023-05-04T05:03:50.242Z,2.00
2023-05-04T05:06:22.087Z,1.70
2023-05-04T05:08:53.338Z,2.03
2023-05-04T05:11:24.617Z,2.17
2023-05-04T05:13:56.064Z,1.90
2023-05-04T05:16:27.360Z,2.10
2023-05-04T05:18:58.706Z,1.63
2023-05-04T05:21:30.308Z,2.20
2023-05-04T05:24:01.780Z,2.03
2023-05-04T05:26:33.308Z,1.97
2023-05-04T05:29:04.601Z,2.20
2023-05-04T05:31:35.999Z,2.27
2023-05-04T05:34:07.272Z,2.20
2023-05-04T05:36:38.961Z,2.40
2023-05-04T05:39:11.403Z,2.20
2023-05-04T05:41:43.249Z,2.00
2023-05-04T05:44:14.539Z,1.93
2023-05-04T05:46:45.899Z,1.80
2023-05-04T05:49:17.259Z,1.60
2023-05-04T05:51:48.525Z,1.83
2023-05-04T05:54:22.796Z,2.53
2023-05-04T05:56:54.065Z,1.70
2023-05-04T05:59:25.358Z,1.77
2023-05-04T06:01:56.614Z,2.13
2023-05-04T06:04:28.092Z,2.90
2023-05-04T06:06:59.364Z,2.23
2023-05-04T06:09:30.622Z,2.20
2023-05-04T06:12:03.187Z,1.80
2023-05-04T06:14:34.459Z,2.03
2023-05-04T06:17:06.042Z,2.10
2023-05-04T06:19:38.136Z,2.33
2023-05-04T06:22:09.465Z,2.10
2023-05-04T06:24:41.156Z,2.30
2023-05-04T06:27:12.629Z,1.97
2023-05-04T06:29:43.955Z,2.23
2023-05-04T06:32:15.333Z,2.00
2023-05-04T06:34:46.604Z,1.87
2023-05-04T06:37:18.556Z,1.70
2023-05-04T06:39:49.837Z,2.07
2023-05-04T06:42:21.266Z,1.67
2023-05-04T06:44:52.558Z,1.50
2023-05-04T06:47:23.885Z,1.90
2023-05-04T06:49:55.190Z,2.30
2023-05-04T06:52:29.518Z,2.17
2023-05-04T06:55:01.676Z,1.90
2023-05-04T06:57:33.325Z,2.03
2023-05-04T07:00:06.252Z,2.23
2023-05-04T07:02:37.745Z,1.73
2023-05-04T07:05:09.147Z,2.00
2023-05-04T07:07:40.728Z,1.90
2023-05-04T07:10:11.998Z,1.93
2023-05-04T07:12:43.731Z,2.13
2023-05-04T07:15:15.166Z,2.13
2023-05-04T07:17:47.334Z,1.70
2023-05-04T07:20:21.296Z,1.70
2023-05-04T07:22:57.062Z,1.80
2023-05-04T07:25:28.600Z,1.87
2023-05-04T07:27:59.879Z,2.10
2023-05-04T07:30:31.264Z,2.17
2023-05-04T07:33:02.794Z,1.80
2023-05-04T07:35:34.117Z,2.10
2023-05-04T07:38:05.420Z,1.83
2023-05-04T07:40:36.786Z,2.00
2023-05-04T07:43:08.086Z,1.77
2023-05-04T07:45:39.365Z,2.10
2023-05-04T07:48:10.778Z,2.03
2023-05-04T07:50:42.081Z,1.70
2023-05-04T07:53:13.746Z,1.60
2023-05-04T07:55:45.017Z,1.33
2023-05-04T07:58:16.699Z,1.50
2023-05-04T08:00:48.139Z,2.00
2023-05-04T08:03:19.461Z,1.77
2023-05-04T08:05:51.145Z,1.67
2023-05-04T08:08:22.512Z,1.50
2023-05-04T08:10:55.004Z,1.30
2023-05-04T08:13:27.534Z,1.60
2023-05-04T08:16:01.364Z,1.43
2023-05-04T08:18:32.701Z,2.10
2023-05-04T08:21:04.425Z,1.83
2023-05-04T08:23:36.234Z,2.23
2023-05-04T08:26:07.538Z,1.30
2023-05-04T08:28:39.777Z,1.90
2023-05-04T08:31:11.135Z,1.50
2023-05-04T08:33:42.484Z,1.57
2023-05-04T08:36:13.804Z,1.50
2023-05-04T08:38:45.075Z,1.40
2023-05-04T08:41:16.601Z,1.40
2023-05-04T08:43:49.267Z,1.70
2023-05-04T08:46:20.764Z,1.73
2023-05-04T08:48:52.315Z,1.57
2023-05-04T08:51:23.891Z,1.20
2023-05-04T08:53:56.218Z,1.73
2023-05-04T08:56:27.570Z,1.50
2023-05-04T08:59:01.825Z,1.53
2023-05-04T09:01:33.542Z,1.77
2023-05-04T09:04:05.458Z,1.20
2023-05-04T09:06:36.913Z,2.53
2023-05-04T09:09:10.031Z,1.70
2023-05-04T09:11:41.486Z,1.70
2023-05-04T09:14:12.764Z,1.40
2023-05-04T09:16:44.140Z,1.30
2023-05-04T09:19:20.761Z,1.40
2023-05-04T09:21:54.299Z,1.33
2023-05-04T09:24:27.461Z,1.30
2023-05-04T09:27:10.235Z,1.20
2023-05-04T09:29:42.348Z,1.80
2023-05-04T09:32:16.602Z,1.20
2023-05-04T09:34:52.515Z,1.30
2023-05-04T09:37:23.875Z,1.15
2023-05-04T09:39:57.356Z,1.50
2023-05-04T09:42:28.681Z,1.23
2023-05-04T09:45:05.997Z,1.40
2023-05-04T09:47:41.500Z,1.30
2023-05-04T09:50:20.103Z,1.45
2023-05-04T09:52:53.314Z,1.60
2023-05-04T09:55:25.570Z,1.80
2023-05-04T09:57:57.407Z,1.40
2023-05-04T10:00:28.709Z,1.10
2023-05-04T10:03:03.367Z,1.87
2023-05-04T10:05:35.284Z,1.47
2023-05-04T10:08:07.973Z,1.50
2023-05-04T10:10:39.787Z,2.30
2023-05-04T10:13:11.202Z,1.50
2023-05-04T10:16:11.537Z,1.70
2023-05-04T10:19:13.676Z,1.40
2023-05-04T10:22:09.840Z,1.30
2023-05-04T10:25:19.625Z,1.23
2023-05-04T10:28:28.595Z,1.50
2023-05-04T10:31:00.162Z,1.45
2023-05-04T10:33:39.564Z,1.38
2023-05-04T10:36:11.810Z,1.40
2023-05-04T10:38:43.324Z,1.48
2023-05-04T10:41:15.520Z,0.98
2023-05-04T10:43:50.672Z,1.45
2023-05-04T10:46:23.491Z,1.52
2023-05-04T10:48:54.850Z,2.10
2023-05-04T10:51:35.751Z,1.13
2023-05-04T10:54:18.747Z,1.40
2023-05-04T10:57:01.998Z,1.10
2023-05-04T10:59:35.380Z,1.40
2023-05-04T11:02:08.305Z,1.80
2023-05-04T11:04:39.748Z,1.67
2023-05-04T11:07:11.060Z,1.37
2023-05-04T11:09:44.278Z,1.30
2023-05-04T11:12:16.427Z,1.20
2023-05-04T11:14:47.703Z,1.67
2023-05-04T11:17:28.327Z,1.55
2023-05-04T11:20:01.037Z,1.50
2023-05-04T11:22:32.890Z,1.48
2023-05-04T11:25:05.038Z,2.00
2023-05-04T11:27:36.488Z,1.60
2023-05-04T11:30:08.495Z,1.33
2023-05-04T11:32:43.526Z,1.23
2023-05-04T11:35:22.713Z,1.92
2023-05-04T11:37:55.357Z,1.17
2023-05-04T11:40:27.489Z,1.42
2023-05-04T11:42:59.591Z,1.45
2023-05-04T11:45:33.124Z,1.40
2023-05-04T11:48:05.165Z,1.50
2023-05-04T11:50:36.756Z,1.50
2023-05-04T11:53:13.428Z,1.15
2023-05-04T11:55:44.704Z,1.35
2023-05-04T11:58:24.111Z,1.00
2023-05-04T12:00:57.649Z,1.33
2023-05-04T12:03:52.259Z,2.08
2023-05-04T12:06:32.621Z,1.37
2023-05-04T12:09:05.977Z,1.50
2023-05-04T12:11:38.320Z,1.10
2023-05-04T12:14:11.650Z,1.40
2023-05-04T12:16:54.017Z,0.98
2023-05-04T12:19:25.964Z,1.75
2023-05-04T12:21:58.753Z,0.88
2023-05-04T12:24:30.275Z,1.10
2023-05-04T12:27:01.982Z,1.55
2023-05-04T12:29:33.281Z,1.30
2023-05-04T12:32:04.745Z,1.38
2023-05-04T12:34:37.072Z,1.10
2023-05-04T12:37:08.373Z,1.58
2023-05-04T12:39:39.738Z,1.50
2023-05-04T12:42:11.163Z,2.00
2023-05-04T12:44:42.489Z,1.13
2023-05-04T12:47:15.115Z,1.27
2023-05-04T12:49:46.404Z,1.45
2023-05-04T12:52:17.690Z,1.10
2023-05-04T12:54:49.730Z,1.17
2023-05-04T12:57:21.009Z,1.50
2023-05-04T12:59:52.299Z,1.15
2023-05-04T13:02:24.228Z,1.25
2023-05-04T13:04:55.549Z,1.30
2023-05-04T13:07:27.271Z,1.20
2023-05-04T13:09:59.097Z,1.10
2023-05-04T13:12:30.449Z,1.75
2023-05-04T13:15:01.837Z,1.17
2023-05-04T13:17:34.575Z,1.20
2023-05-04T13:20:07.045Z,1.00
2023-05-04T13:22:39.522Z,1.20
2023-05-04T13:25:10.950Z,1.23
2023-05-04T13:27:42.291Z,1.10
2023-05-04T13:30:13.721Z,1.42
2023-05-04T13:32:45.496Z,1.52
2023-05-04T13:35:17.045Z,1.50
2023-05-04T13:37:48.353Z,1.20
2023-05-04T13:40:19.890Z,1.50
2023-05-04T13:42:51.556Z,1.10
2023-05-04T13:45:23.492Z,1.00
2023-05-04T13:47:54.826Z,1.58
2023-05-04T13:50:26.254Z,2.03
2023-05-04T13:52:57.597Z,1.23
2023-05-04T13:55:28.872Z,2.55
2023-05-04T13:58:00.600Z,0.90
2023-05-04T14:00:32.223Z,1.40
2023-05-04T14:03:04.149Z,0.90
2023-05-04T14:05:35.742Z,1.20
2023-05-04T14:08:07.056Z,1.00
2023-05-04T14:10:38.432Z,1.00
2023-05-04T14:13:09.813Z,1.30
2023-05-04T14:15:41.195Z,1.50
2023-05-04T14:18:12.556Z,1.30
2023-05-04T14:20:43.988Z,0.98
2023-05-04T14:23:15.964Z,1.23
2023-05-04T14:25:51.640Z,1.50
2023-05-04T14:28:23.902Z,1.08
2023-05-04T14:30:55.296Z,1.20
2023-05-04T14:33:26.687Z,1.27
2023-05-04T14:35:57.967Z,2.00
2023-05-04T14:38:29.815Z,1.50
2023-05-04T14:41:04.843Z,0.90
2023-05-04T14:43:36.300Z,1.10
2023-05-04T14:46:09.289Z,1.52
2023-05-04T14:48:40.632Z,1.00
2023-05-04T14:51:13.223Z,1.48
2023-05-04T14:53:46.766Z,1.02
2023-05-04T14:56:18.393Z,1.63
2023-05-04T14:58:49.771Z,1.10
2023-05-04T15:01:21.073Z,1.38
2023-05-04T15:03:52.629Z,1.42
2023-05-04T15:06:24.028Z,1.42
2023-05-04T15:08:55.302Z,1.70
2023-05-04T15:11:26.586Z,1.38
2023-05-04T15:13:58.953Z,1.35
2023-05-04T15:16:32.696Z,1.15
2023-05-04T15:19:04.247Z,1.30
2023-05-04T15:21:35.618Z,1.17
2023-05-04T15:24:07.238Z,1.55
2023-05-04T15:26:38.823Z,1.33
2023-05-04T15:29:10.177Z,1.88
2023-05-04T15:31:41.529Z,1.33
2023-05-04T15:34:12.828Z,0.90
2023-05-04T15:36:44.207Z,1.35
2023-05-04T15:39:15.508Z,1.30
2023-05-04T15:41:46.869Z,1.13
2023-05-04T15:44:20.852Z,1.30
2023-05-04T15:46:52.235Z,1.17
2023-05-04T15:49:23.680Z,1.30
2023-05-04T15:51:55.049Z,1.03
2023-05-04T15:54:26.393Z,1.50
2023-05-04T15:56:57.839Z,1.63
2023-05-04T15:59:29.185Z,1.20
2023-05-04T16:02:00.629Z,1.27
2023-05-04T16:04:32.129Z,0.80
2023-05-04T16:07:03.448Z,1.07
2023-05-04T16:09:34.804Z,1.60
2023-05-04T16:12:07.838Z,1.13
2023-05-04T16:14:39.122Z,1.40
2023-05-04T16:17:10.582Z,1.20
2023-05-04T16:19:42.273Z,1.10
2023-05-04T16:22:13.588Z,1.10
2023-05-04T16:24:44.968Z,0.97
2023-05-04T16:27:16.316Z,2.13
2023-05-04T16:29:47.637Z,1.07
2023-05-04T16:32:19.344Z,1.20
2023-05-04T16:34:50.715Z,1.30
2023-05-04T16:37:22.140Z,1.03
2023-05-04T16:39:54.240Z,0.90
2023-05-04T16:42:25.536Z,1.20
2023-05-04T16:44:56.836Z,1.17
2023-05-04T16:47:28.230Z,1.57
2023-05-04T16:49:59.610Z,1.60
2023-05-04T16:52:31.090Z,1.20
2023-05-04T16:55:02.412Z,1.00
2023-05-04T16:57:33.689Z,1.30
2023-05-04T17:00:06.703Z,1.33
2023-05-04T17:02:38.476Z,2.07
2023-05-04T17:05:10.450Z,1.23
2023-05-04T17:07:43.422Z,1.97
2023-05-04T17:10:14.998Z,1.37
2023-05-04T17:12:46.642Z,1.43
2023-05-04T17:15:18.057Z,1.00
2023-05-04T17:17:49.465Z,1.30
2023-05-04T17:20:21.675Z,1.70
2023-05-04T17:22:54.356Z,1.20
2023-05-04T17:25:26.755Z,1.40
2023-05-04T17:27:58.101Z,1.20
2023-05-04T17:30:29.447Z,1.40
2023-05-04T17:33:01.351Z,1.20
2023-05-04T17:35:32.683Z,1.50
2023-05-04T17:38:04.102Z,1.17
2023-05-04T17:40:35.414Z,1.27
2023-05-04T17:43:06.804Z,1.10
2023-05-04T17:45:38.154Z,0.90
2023-05-04T17:48:09.501Z,1.37
2023-05-04T17:50:40.908Z,1.10
2023-05-04T17:53:12.243Z,1.30
2023-05-04T17:55:43.526Z,1.17
2023-05-04T17:58:14.935Z,1.17
2023-05-04T18:00:46.190Z,1.93
2023-05-04T18:03:17.851Z,1.83
2023-05-04T18:05:49.198Z,2.33
2023-05-04T18:08:20.524Z,1.87
2023-05-04T18:10:52.200Z,1.50
2023-05-04T18:13:23.526Z,1.90
2023-05-04T18:15:55.038Z,1.83
2023-05-04T18:18:26.663Z,2.13
2023-05-04T18:20:58.689Z,2.13
2023-05-04T18:23:30.110Z,1.77
2023-05-04T18:26:01.659Z,2.30
2023-05-04T18:28:33.217Z,2.43
2023-05-04T18:31:05.588Z,1.77
2023-05-04T18:33:39.958Z,1.90
2023-05-04T18:36:11.946Z,1.80
2023-05-04T18:38:49.544Z,2.00
2023-05-04T18:41:21.852Z,2.53
2023-05-04T18:43:55.710Z,2.13
2023-05-04T18:46:27.649Z,3.30
2023-05-04T18:48:59.077Z,2.63
2023-05-04T18:51:31.013Z,2.73
2023-05-04T18:54:02.371Z,2.80
2023-05-04T18:56:33.755Z,1.80
2023-05-04T18:59:05.965Z,2.33
2023-05-04T19:01:38.631Z,2.03
2023-05-04T19:04:10.411Z,2.50
2023-05-04T19:06:42.006Z,2.33
2023-05-04T19:09:14.416Z,2.67
2023-05-04T19:11:48.815Z,2.33
2023-05-04T19:14:20.197Z,2.80
2023-05-04T19:16:51.551Z,2.80
2023-05-04T19:19:23.414Z,2.80
2023-05-04T19:21:55.349Z,2.03
2023-05-04T19:24:26.739Z,3.23
2023-05-04T19:27:00.191Z,2.70
2023-05-04T19:29:31.852Z,2.47
2023-05-04T19:32:12.024Z,2.63
2023-05-04T19:34:51.995Z,2.40
2023-05-04T19:37:23.324Z,2.23
2023-05-04T19:39:54.803Z,2.10
2023-05-04T19:42:26.420Z,2.57
2023-05-04T19:44:57.748Z,1.83
2023-05-04T19:47:29.222Z,2.67
2023-05-04T19:50:00.618Z,2.77
2023-05-04T19:52:34.627Z,3.57
2023-05-04T19:55:06.863Z,2.60
2023-05-04T19:57:38.602Z,2.80
2023-05-04T20:00:10.643Z,2.93
2023-05-04T20:02:42.268Z,3.37
2023-05-04T20:05:14.129Z,2.77
2023-05-04T20:07:45.674Z,2.70
2023-05-04T20:10:17.300Z,2.30
2023-05-04T20:12:48.768Z,2.07
2023-05-04T20:15:20.167Z,2.13
2023-05-04T20:17:51.585Z,2.73
2023-05-04T20:20:22.940Z,1.90
2023-05-04T20:22:55.980Z,2.13
2023-05-04T20:25:27.624Z,2.50
2023-05-04T20:27:59.037Z,2.33
2023-05-04T20:30:30.336Z,2.53
2023-05-04T20:33:01.756Z,2.50
2023-05-04T20:35:33.132Z,3.13
2023-05-04T20:38:04.625Z,2.60
2023-05-04T20:40:35.957Z,2.43
2023-05-04T20:43:07.307Z,1.97
2023-05-04T20:45:38.572Z,2.43
2023-05-04T20:48:09.924Z,2.70
2023-05-04T20:50:42.232Z,2.13
2023-05-04T20:53:13.618Z,2.17
2023-05-04T20:55:44.918Z,2.37
2023-05-04T20:58:19.392Z,2.93
2023-05-04T21:00:52.070Z,2.53
2023-05-04T21:03:23.399Z,2.20
2023-05-04T21:05:55.969Z,2.20
2023-05-04T21:08:27.316Z,2.30
2023-05-04T21:10:58.904Z,2.80
2023-05-04T21:13:30.753Z,2.27
2023-05-04T21:16:02.043Z,2.60
2023-05-04T21:18:34.475Z,2.70
2023-05-04T21:21:05.896Z,2.23
2023-05-04T21:23:37.250Z,2.77
2023-05-04T21:26:08.599Z,2.30
2023-05-04T21:28:39.913Z,2.07
2023-05-04T21:31:11.256Z,2.23
2023-05-04T21:33:42.553Z,2.30
2023-05-04T21:36:14.676Z,2.27
2023-05-04T21:38:45.999Z,2.83
2023-05-04T21:41:17.300Z,2.33
2023-05-04T21:43:48.579Z,2.40
2023-05-04T21:46:19.952Z,2.57
2023-05-04T21:48:51.799Z,2.50
2023-05-04T21:51:23.253Z,2.57
2023-05-04T21:53:54.612Z,2.23
2023-05-04T21:56:25.911Z,2.33
2023-05-04T21:58:57.192Z,2.10
2023-05-04T22:01:28.966Z,2.20
2023-05-04T22:04:00.360Z,2.07
2023-05-04T22:06:31.812Z,2.23
2023-05-04T22:09:04.061Z,2.10
2023-05-04T22:11:35.686Z,1.83
2023-05-04T22:14:07.048Z,2.07
2023-05-04T22:16:38.411Z,2.30
2023-05-04T22:19:10.179Z,2.30
2023-05-04T22:21:41.474Z,1.80
2023-05-04T22:24:12.739Z,1.93
2023-05-04T22:26:44.498Z,2.13
2023-05-04T22:29:15.842Z,2.50
2023-05-04T22:31:47.135Z,1.87
2023-05-04T22:34:18.435Z,2.03
2023-05-04T22:36:50.003Z,2.70
2023-05-04T22:39:21.978Z,2.27
2023-05-04T22:41:53.493Z,1.70
2023-05-04T22:44:24.768Z,1.83
2023-05-04T22:46:56.105Z,1.90
2023-05-04T22:49:27.455Z,2.03
2023-05-04T22:51:58.720Z,2.40
2023-05-04T22:54:30.070Z,2.30
2023-05-04T22:57:02.020Z,2.27
2023-05-04T22:59:34.191Z,1.70
2023-05-04T23:02:06.092Z,1.87
2023-05-04T23:04:37.867Z,2.53
2023-05-04T23:07:09.394Z,1.77
2023-05-04T23:09:47.013Z,1.90
2023-05-04T23:12:18.365Z,1.67
2023-05-04T23:14:52.151Z,2.00
2023-05-04T23:17:23.585Z,2.00
2023-05-04T23:19:54.870Z,2.13
2023-05-04T23:22:26.156Z,1.63
2023-05-04T23:24:57.748Z,2.53
2023-05-04T23:27:29.009Z,2.07
2023-05-04T23:30:00.326Z,1.87
2023-05-04T23:32:31.744Z,1.93
2023-05-04T23:35:03.345Z,2.10
2023-05-04T23:37:34.640Z,1.70
2023-05-04T23:40:07.198Z,2.20
2023-05-04T23:42:38.789Z,1.37
2023-05-04T23:45:11.560Z,1.70
2023-05-04T23:47:43.403Z,1.90
2023-05-04T23:50:14.872Z,2.00
2023-05-04T23:52:46.140Z,1.90
2023-05-04T23:55:17.640Z,1.80
2023-05-04T23:57:49.097Z,1.93
